Lansing, New York
Current Conditions -  °F | °C
As of 12:56 PM on Friday 21 Nov 2014 (Local Time) from KITH Reporting Station
Snow Showers Snow Showers  
Wind Chill: 15°   Ceiling: 2600
Heat Index: 27°   Visibility: 10mi
Dew Point: 16°   Wind: 16mph
Humidity: 63%   Direction: 300°WNW
Pressure: 30.33"   Gusts: NA
Location:  42.48°N, 76.48°W
Report Text: KITH 211756Z 30014KT 10SM -SHSN BKN026 M03/M09 A3033 RMK AO2 51019 60000 T10271088 11033 21066 P0000 SLP287
Loading
Personal Weather Stations






























Interactive Weather Map New forecast layout! Learn more

10-Day Weather Forecast

Advertisements
Track Severe Weather on mobile